Terminal Aerodrome Forecast
Issued by NWS

Home | Current Version | Previous Version | Text Only | Print | Product List | Glossary On
Versions: 1 2 3 4 5 6 7 8 9 10 11 12
952
FTUS45 KABQ 261143 RRA
TAFROW
TAF
KROW 261143Z 2612/2712 31005KT P6SM SCT150
     FM261900 23012G18KT P6SM SCT120
     FM262200 26015G23KT P6SM BKN100
     FM270100 29008KT P6SM SCT100=

USA.gov is the U.S. government's official web portal to all federal, state and local government web resources and services.